Saint John, KS (67576)

9:39 AM CDT on September 16, 2014 (GMT -0500)
RAWS STAFFORD KS US | Change Station
CLOSE
Current Station
Personal Weather Station
Location: Hudson, KS
Elevation: 1768 ft
Nearby Weather Stations

Elev 1768 ft 38.14 °N, 98.48 °W | Updated 40 minutes ago

Overcast
Overcast
56 °F
Feels Like 56 °F
N
1
Wind Variable Wind from East
Gusts 2.0 mph

Today
High -- | Low -- °F
--% Chance of Precip.
Yesterday
High -- | Low -- °F
Precip. -- in
7:17 AM 7:41 PM
Last Quarter, 45% visible
Pressure 30.23 in
Visibility 10.0 miles
Clouds Overcast 1500 ft
Dew Point 52 °F
Humidity 85%
Rainfall 0.00 in
Snow Depth Not available.
UV 1 out of 12
Pollen 6.90 out of 12
Air Quality Not available.
Flu Activity Not available.
METAR KPTT 161415Z AUTO 09005KT 10SM OVC015 14/09 A3023 RMK AO2

More Conditions Fewer Conditions

Pressure 30.23 in
Visibility 10.0 miles
Clouds Overcast 1500 ft
Dew Point 52 °F
Humidity 85%
Rainfall 0.00 in
Snow Depth Not available.
UV 1 out of 12
Pollen 6.90 out of 12
Air Quality Not available.
Flu Activity Not available.
METAR KPTT 161415Z AUTO 09005KT 10SM OVC015 14/09 A3023 RMK AO2

More Conditions Fewer Conditions

10-Day Weather Forecast

Almanac

Astronomy

Sep. 16, 2014 Rise Set
Actual Time 7:17 AM CDT 7:41 PM CDT
Civil Twilight 6:51 AM CDT 8:07 PM CDT
Nautical Twilight 6:20 AM CDT 8:38 PM CDT
Astronomical Twilight 5:48 AM CDT 9:10 PM CDT
Moon 12:32 AM CDT 3:02 PM CDT
Length of Visible Light 13h 16m
Length of Day
12h 23m
Tomorrow will be 2m 25s shorter.
Last Quarter, 45% of the Moon is Illuminated
Today
Last Quarter
Sep 24
New
Oct 1
First Quarter
Oct 8
Full
Oct 15
Last Quarter

Today's Extremes

State Highs State Lows

Community

WunderPhotos

Upload Photos

1,753,789 photos uploaded!

Nearby

Snow Depth

Station Depth Elevation
No new snow has been reported.

Earthquake Activity

City Distance Mag. Time & Date
Enid, Oklahoma 104 miles 3.1 8:27 AM CDT
2014-09-15
Cherokee, Oklahoma 93 miles 3.1 4:21 AM CDT
2014-09-15
Enid, Oklahoma 106 miles 3.6 7:01 AM CDT
2014-09-14
Perry, Oklahoma 151 miles 3.3 11:10 PM CDT
2014-09-13
Minimum magnitude displayed is 2.5.

Coastal Water Temperatures

Place Temperature
No Stations Reporting

Nearby Weather Stations